Time;durP1;ratioP1;P1;durP2;ratioP2;P2;SDS_P1;SDS_P2;PMS_P1;PMS_P2;Temp;Humidity;BMP_temperature;BMP_pressure;BME280_temperature;BME280_humidity;BME280_pressure;Samples;Min_cycle;Max_cycle;Signal;HPM_P1;HPM_P2
2023/04/03 00:01:38;;;;;;;3.75;2.35;;;20.80;32.90;;;;;;5042739;28;20353;-50
2023/04/03 00:04:05;;;;;;;3.50;2.45;;;20.80;32.90;;;;;;5046900;28;20033;-50
2023/04/03 00:06:32;;;;;;;2.92;2.45;;;20.80;32.90;;;;;;5045623;28;20094;-51
2023/04/03 00:08:58;;;;;;;4.32;2.33;;;20.80;32.90;;;;;;5052429;28;20425;-53
2023/04/03 00:11:25;;;;;;;3.10;2.13;;;20.80;32.80;;;;;;5052277;28;20056;-50
2023/04/03 00:13:51;;;;;;;4.72;2.70;;;20.80;32.80;;;;;;5053407;28;20025;-53
2023/04/03 00:16:17;;;;;;;3.92;2.33;;;20.80;32.80;;;;;;5053374;28;20079;-49
2023/04/03 00:18:43;;;;;;;3.28;2.13;;;20.80;32.80;;;;;;5050479;28;20041;-53
2023/04/03 00:21:12;;;;;;;3.22;2.20;;;20.80;32.80;;;;;;5052171;28;20029;-50
2023/04/03 00:23:38;;;;;;;2.80;2.10;;;20.80;32.70;;;;;;5052589;28;20029;-51
2023/04/03 00:26:04;;;;;;;3.05;2.33;;;20.80;33.40;;;;;;5053038;28;20087;-50
2023/04/03 00:28:30;;;;;;;2.67;2.10;;;20.80;32.70;;;;;;5053387;28;20459;-49
2023/04/03 00:30:56;;;;;;;3.30;2.40;;;20.80;32.70;;;;;;5051893;28;20025;-51
2023/04/03 00:33:22;;;;;;;3.25;2.03;;;20.70;32.70;;;;;;5054029;28;20091;-49
2023/04/03 00:35:48;;;;;;;3.03;1.92;;;20.70;32.60;;;;;;5052018;28;20087;-50
2023/04/03 00:38:15;;;;;;;3.60;2.08;;;20.70;32.60;;;;;;5044731;28;20021;-50
2023/04/03 00:40:47;;;;;;;2.67;1.90;;;20.70;32.60;;;;;;5044942;28;20059;-50
2023/04/03 00:43:19;;;;;;;3.33;2.05;;;20.70;32.60;;;;;;5043861;28;20051;-50
2023/04/03 00:45:48;;;;;;;2.15;1.65;;;20.70;32.60;;;;;;5047637;28;20037;-52
2023/04/03 00:48:19;;;;;;;2.63;1.75;;;20.70;32.60;;;;;;5045690;28;20032;-52
2023/04/03 00:50:46;;;;;;;2.92;1.70;;;20.70;32.60;;;;;;5049680;28;20465;-51
2023/04/03 00:53:18;;;;;;;3.03;1.88;;;20.70;32.60;;;;;;5067968;28;20436;-54
2023/04/03 00:55:46;;;;;;;3.22;1.55;;;20.70;32.60;;;;;;5037982;28;20082;-52
2023/04/03 00:58:13;;;;;;;2.80;1.90;;;20.70;32.60;;;;;;5046525;28;20064;-52
2023/04/03 01:00:42;;;;;;;3.38;1.77;;;20.70;32.60;;;;;;5063535;28;20021;-53
2023/04/03 01:03:07;;;;;;;2.78;1.73;;;20.70;32.60;;;;;;5039957;28;20461;-53
2023/04/03 01:05:35;;;;;;;2.88;1.70;;;20.70;32.60;;;;;;5041713;28;20029;-50
2023/04/03 01:08:01;;;;;;;2.28;1.67;;;20.70;32.60;;;;;;5041592;28;20421;-55
2023/04/03 01:10:28;;;;;;;2.63;1.77;;;20.70;32.60;;;;;;5037443;28;20100;-51
2023/04/03 01:12:54;;;;;;;2.05;1.45;;;20.70;32.60;;;;;;5041352;28;20409;-54
2023/04/03 01:15:27;;;;;;;2.33;1.30;;;20.60;32.50;;;;;;5043147;28;20037;-54
2023/04/03 01:17:58;;;;;;;2.30;1.60;;;20.70;32.60;;;;;;5041510;28;20026;-53
2023/04/03 01:20:34;;;;;;;2.33;1.40;;;20.60;32.50;;;;;;5044270;28;20450;-53
2023/04/03 01:23:09;;;;;;;2.40;1.58;;;20.60;32.50;;;;;;5040817;28;20087;-50
2023/04/03 01:25:38;;;;;;;3.03;1.70;;;20.60;32.50;;;;;;5042888;28;20033;-50
2023/04/03 01:28:05;;;;;;;2.47;1.45;;;20.60;32.50;;;;;;5041610;28;20025;-52
2023/04/03 01:30:36;;;;;;;2.05;1.45;;;20.60;32.50;;;;;;5039080;28;20255;-50
2023/04/03 01:33:02;;;;;;;2.47;1.30;;;20.60;32.50;;;;;;5037143;28;20029;-52
2023/04/03 01:35:28;;;;;;;2.38;1.48;;;20.60;32.50;;;;;;5039597;28;20048;-50
2023/04/03 01:37:54;;;;;;;3.22;1.45;;;20.60;32.50;;;;;;5044675;28;20364;-51
2023/04/03 01:40:20;;;;;;;1.90;1.20;;;20.60;32.50;;;;;;5043606;28;20025;-50
2023/04/03 01:42:46;;;;;;;2.38;1.40;;;20.60;32.50;;;;;;5042861;28;20548;-51
2023/04/03 01:45:12;;;;;;;3.00;1.30;;;20.60;32.60;;;;;;5048732;28;20151;-52
2023/04/03 01:47:38;;;;;;;2.08;1.08;;;20.60;32.60;;;;;;5050352;28;20028;-52
2023/04/03 01:50:05;;;;;;;2.53;1.40;;;20.60;32.60;;;;;;5050186;28;20036;-52
2023/04/03 01:52:33;;;;;;;1.42;1.05;;;20.60;32.60;;;;;;5040763;28;20388;-54
2023/04/03 01:54:59;;;;;;;2.53;1.38;;;20.60;32.60;;;;;;5073928;28;20025;-55
2023/04/03 01:57:25;;;;;;;2.10;1.30;;;20.60;32.60;;;;;;5043495;28;20029;-55
2023/04/03 01:59:51;;;;;;;2.53;1.58;;;20.50;32.50;;;;;;5042502;28;20117;-51
2023/04/03 02:02:17;;;;;;;2.40;1.35;;;20.50;32.50;;;;;;5051217;28;20426;-51
2023/04/03 02:04:43;;;;;;;2.65;1.40;;;20.50;32.50;;;;;;5054979;28;20043;-53
2023/04/03 02:07:09;;;;;;;1.90;1.38;;;20.50;32.60;;;;;;5053921;28;20021;-53
2023/04/03 02:09:35;;;;;;;1.88;1.05;;;20.60;32.60;;;;;;5054672;28;20444;-49
2023/04/03 02:12:01;;;;;;;1.90;1.40;;;20.50;32.50;;;;;;5054820;28;20428;-53
2023/04/03 02:14:27;;;;;;;2.25;1.33;;;20.50;32.60;;;;;;5054316;28;20049;-49
2023/04/03 02:16:53;;;;;;;1.83;1.20;;;20.50;32.60;;;;;;5054566;28;20360;-53
2023/04/03 02:19:22;;;;;;;1.90;1.17;;;20.50;32.60;;;;;;5052495;28;20028;-52
2023/04/03 02:21:48;;;;;;;1.75;1.00;;;20.50;32.50;;;;;;5054311;28;20029;-52
2023/04/03 02:24:14;;;;;;;1.65;1.02;;;20.50;32.60;;;;;;5053847;28;20360;-52
2023/04/03 02:26:40;;;;;;;1.98;1.30;;;20.50;32.60;;;;;;5053911;28;20124;-54
2023/04/03 02:29:06;;;;;;;2.00;1.08;;;20.50;32.50;;;;;;5055423;28;20108;-52
2023/04/03 02:31:32;;;;;;;1.83;1.20;;;20.50;32.60;;;;;;5055339;28;20029;-55
2023/04/03 02:34:00;;;;;;;1.33;0.93;;;20.50;32.60;;;;;;5050572;28;20398;-51
2023/04/03 02:36:26;;;;;;;2.75;1.15;;;20.50;32.60;;;;;;5043878;28;20021;-48
2023/04/03 02:38:56;;;;;;;1.40;0.93;;;20.50;32.50;;;;;;5046988;28;20021;-53
2023/04/03 02:41:22;;;;;;;1.50;1.10;;;20.50;32.50;;;;;;5051466;28;20456;-47
2023/04/03 02:43:50;;;;;;;2.47;1.20;;;20.50;32.50;;;;;;5047831;28;20053;-54
2023/04/03 02:46:16;;;;;;;3.33;1.17;;;20.50;32.60;;;;;;5044319;28;20033;-51
2023/04/03 02:48:42;;;;;;;2.90;1.33;;;20.40;32.50;;;;;;5049373;28;20136;-51
2023/04/03 02:51:08;;;;;;;2.75;1.00;;;20.50;32.50;;;;;;5049804;28;20394;-53
2023/04/03 02:53:34;;;;;;;1.17;0.73;;;20.40;32.40;;;;;;5044466;28;20027;-56
2023/04/03 02:56:06;;;;;;;2.42;1.20;;;20.40;32.50;;;;;;5043396;28;20376;-56
2023/04/03 02:58:32;;;;;;;1.88;1.08;;;20.50;32.50;;;;;;5049017;28;20021;-53
2023/04/03 03:00:59;;;;;;;1.90;0.88;;;20.50;32.50;;;;;;5047225;28;20060;-54
2023/04/03 03:03:25;;;;;;;1.15;0.95;;;20.40;32.50;;;;;;5047259;28;20071;-52
2023/04/03 03:06:01;;;;;;;2.25;1.17;;;20.40;32.60;;;;;;5043622;28;20037;-55
2023/04/03 03:08:27;;;;;;;1.63;0.88;;;20.40;32.70;;;;;;5044798;28;20029;-52
2023/04/03 03:10:52;;;;;;;1.55;0.90;;;20.40;32.70;;;;;;5045945;28;20040;-48
2023/04/03 03:13:18;;;;;;;1.85;0.95;;;20.40;32.70;;;;;;5041419;28;20076;-54
2023/04/03 03:15:44;;;;;;;1.63;0.98;;;20.40;32.70;;;;;;5040143;28;20033;-55
2023/04/03 03:18:10;;;;;;;2.67;1.10;;;20.40;32.60;;;;;;5050207;28;20029;-49
2023/04/03 03:20:36;;;;;;;2.00;1.23;;;20.40;32.70;;;;;;5044899;28;20033;-54
2023/04/03 03:23:02;;;;;;;2.15;1.00;;;20.40;32.60;;;;;;5059752;28;20030;-49
2023/04/03 03:25:28;;;;;;;1.60;1.05;;;20.40;32.60;;;;;;5075684;28;20078;-48
2023/04/03 03:27:54;;;;;;;4.82;0.90;;;20.40;32.60;;;;;;5037825;28;20030;-48
2023/04/03 03:30:20;;;;;;;1.20;0.90;;;20.40;32.60;;;;;;5040821;28;20017;-52
2023/04/03 03:32:46;;;;;;;1.75;1.08;;;20.40;32.60;;;;;;5039375;28;20388;-51
2023/04/03 03:35:13;;;;;;;2.33;1.10;;;20.40;32.60;;;;;;5044884;28;20128;-53
2023/04/03 03:37:39;;;;;;;1.15;0.70;;;20.40;32.60;;;;;;5042196;28;20123;-51
2023/04/03 03:40:06;;;;;;;1.67;0.95;;;20.40;32.60;;;;;;5046354;28;20417;-54
2023/04/03 03:42:32;;;;;;;1.15;0.80;;;20.40;32.60;;;;;;5043836;28;20468;-52
2023/04/03 03:44:58;;;;;;;1.75;0.90;;;20.40;32.60;;;;;;5038647;28;20044;-48
2023/04/03 03:47:23;;;;;;;1.85;0.90;;;20.30;32.50;;;;;;5052043;28;20079;-53
2023/04/03 03:49:49;;;;;;;2.40;0.90;;;20.30;32.50;;;;;;5046034;28;20029;-52
2023/04/03 03:52:17;;;;;;;2.40;1.10;;;20.30;32.50;;;;;;5045525;28;20111;-52
2023/04/03 03:54:43;;;;;;;1.80;0.82;;;20.40;32.50;;;;;;5043421;28;20017;-54
2023/04/03 03:57:09;;;;;;;1.92;0.90;;;20.30;32.50;;;;;;5039485;28;20501;-54
2023/04/03 03:59:35;;;;;;;1.85;1.00;;;20.30;32.50;;;;;;5041951;28;20113;-51
2023/04/03 04:02:01;;;;;;;1.20;0.80;;;20.30;32.40;;;;;;5073628;28;20104;-51
2023/04/03 04:04:27;;;;;;;1.42;0.90;;;20.30;32.40;;;;;;5052840;28;20034;-53
2023/04/03 04:06:52;;;;;;;1.92;0.80;;;20.30;32.40;;;;;;5052627;28;20369;-51
2023/04/03 04:09:19;;;;;;;2.85;0.80;;;20.30;32.40;;;;;;5052225;28;20041;-52
2023/04/03 04:11:45;;;;;;;2.53;1.02;;;20.30;32.40;;;;;;5053148;28;20407;-52
2023/04/03 04:14:13;;;;;;;1.20;0.80;;;20.30;32.40;;;;;;5052382;28;20021;-50
2023/04/03 04:16:39;;;;;;;1.35;0.70;;;20.30;32.40;;;;;;5051717;28;20032;-53
2023/04/03 04:19:11;;;;;;;1.10;0.80;;;20.30;32.40;;;;;;5036426;28;20174;-54
2023/04/03 04:21:39;;;;;;;2.25;0.90;;;20.30;32.40;;;;;;5052422;28;20026;-52
2023/04/03 04:24:06;;;;;;;2.45;1.02;;;20.30;32.40;;;;;;5052384;28;20041;-53
2023/04/03 04:26:32;;;;;;;3.08;1.00;;;20.20;32.30;;;;;;5051699;28;20029;-49
2023/04/03 04:28:58;;;;;;;1.48;0.70;;;20.30;32.40;;;;;;5051908;28;20025;-53
2023/04/03 04:31:24;;;;;;;1.40;0.80;;;20.30;32.40;;;;;;5052093;28;20021;-47
2023/04/03 04:33:51;;;;;;;1.83;0.80;;;20.20;32.30;;;;;;5045725;28;20112;-54
2023/04/03 04:36:17;;;;;;;1.85;1.08;;;20.20;32.30;;;;;;5043272;28;20491;-51
2023/04/03 04:38:45;;;;;;;1.63;0.82;;;20.20;32.40;;;;;;5046940;28;20207;-51
2023/04/03 04:41:12;;;;;;;1.52;0.73;;;20.20;32.30;;;;;;5044151;28;20455;-50
2023/04/03 04:43:38;;;;;;;1.52;0.98;;;20.20;32.30;;;;;;5042936;28;20049;-48
2023/04/03 04:46:09;;;;;;;2.22;0.80;;;20.20;32.40;;;;;;5043752;28;20406;-54
2023/04/03 04:48:41;;;;;;;1.20;0.90;;;20.20;32.40;;;;;;5049070;28;20025;-53
2023/04/03 04:51:07;;;;;;;1.25;0.80;;;20.20;32.30;;;;;;5045160;28;20033;-54
2023/04/03 04:53:35;;;;;;;2.42;0.90;;;20.20;32.40;;;;;;5042976;28;20021;-49
2023/04/03 04:56:01;;;;;;;1.70;0.90;;;20.20;32.30;;;;;;5044734;28;20024;-51
2023/04/03 04:58:27;;;;;;;1.67;0.80;;;20.20;32.30;;;;;;5027303;28;20017;-51
2023/04/03 05:01:00;;;;;;;1.33;0.73;;;20.20;32.30;;;;;;5039470;28;20108;-52
2023/04/03 05:03:26;;;;;;;1.58;0.80;;;20.20;32.30;;;;;;5044111;28;20033;-52
2023/04/03 05:05:52;;;;;;;2.00;1.02;;;20.20;32.30;;;;;;5043944;28;20035;-53
2023/04/03 05:08:17;;;;;;;1.60;0.77;;;20.20;32.20;;;;;;5044459;28;20112;-48
2023/04/03 05:10:45;;;;;;;2.70;0.75;;;20.20;32.20;;;;;;5043724;28;20053;-55
2023/04/03 05:13:11;;;;;;;1.83;0.90;;;20.20;32.20;;;;;;5041006;28;20049;-56
2023/04/03 05:15:37;;;;;;;1.25;0.70;;;20.20;32.20;;;;;;5043688;28;20030;-52
2023/04/03 05:18:04;;;;;;;1.95;0.70;;;20.20;32.20;;;;;;5047802;28;20039;-54
2023/04/03 05:20:31;;;;;;;1.50;0.63;;;20.10;32.10;;;;;;5041688;28;20044;-53
2023/04/03 05:22:57;;;;;;;1.52;0.77;;;20.20;32.10;;;;;;5044771;28;20057;-49
2023/04/03 05:25:23;;;;;;;1.83;0.70;;;20.10;32.00;;;;;;5044182;28;20056;-55
2023/04/03 05:27:49;;;;;;;1.20;0.80;;;20.20;32.10;;;;;;5043335;28;20028;-51
2023/04/03 05:30:16;;;;;;;0.93;0.65;;;20.10;32.00;;;;;;5047018;28;20049;-52
2023/04/03 05:32:44;;;;;;;1.70;0.80;;;20.10;32.00;;;;;;5042756;28;20131;-53
2023/04/03 05:35:20;;;;;;;1.65;0.70;;;20.10;31.90;;;;;;5042610;28;20402;-53
2023/04/03 05:37:49;;;;;;;1.08;0.60;;;20.10;32.00;;;;;;5049874;28;20029;-54
2023/04/03 05:40:16;;;;;;;1.40;0.70;;;20.10;31.90;;;;;;5047761;28;20456;-51
2023/04/03 05:42:45;;;;;;;2.05;0.57;;;20.10;31.90;;;;;;5042213;28;20469;-51
2023/04/03 05:45:11;;;;;;;1.67;0.73;;;20.10;31.90;;;;;;5051662;28;20037;-51
2023/04/03 05:47:38;;;;;;;1.77;0.80;;;20.10;31.90;;;;;;5052783;28;20384;-53
2023/04/03 05:50:06;;;;;;;1.60;0.60;;;20.10;31.80;;;;;;5054303;28;20025;-54
2023/04/03 05:52:36;;;;;;;1.67;0.68;;;20.10;31.80;;;;;;5054600;28;20029;-53
2023/04/03 05:55:02;;;;;;;1.73;0.80;;;20.10;31.80;;;;;;5056512;28;20025;-51
2023/04/03 05:57:30;;;;;;;2.13;0.98;;;20.10;31.70;;;;;;5055522;28;20476;-55
2023/04/03 05:59:56;;;;;;;1.63;0.80;;;20.10;31.70;;;;;;5052301;28;20044;-51
2023/04/03 06:02:24;;;;;;;1.80;0.70;;;20.10;31.70;;;;;;5053055;28;21017;-54
2023/04/03 06:04:51;;;;;;;2.08;0.77;;;20.10;31.70;;;;;;5041827;28;20360;-53
2023/04/03 06:07:22;;;;;;;1.92;0.77;;;20.10;31.70;;;;;;5054803;28;20050;-54
2023/04/03 06:09:51;;;;;;;1.08;0.70;;;20.10;31.70;;;;;;5056247;28;20347;-49
2023/04/03 06:12:18;;;;;;;1.40;0.70;;;20.10;31.70;;;;;;5048992;28;20025;-52
2023/04/03 06:14:44;;;;;;;2.85;1.00;;;20.10;31.70;;;;;;5045156;28;20521;-53
2023/04/03 06:17:12;;;;;;;1.08;0.70;;;20.10;31.70;;;;;;5045407;28;20025;-53
2023/04/03 06:19:37;;;;;;;1.77;0.80;;;20.10;31.70;;;;;;5048881;28;20464;-52
2023/04/03 06:22:07;;;;;;;1.30;0.60;;;20.10;31.70;;;;;;5043508;28;20124;-54
2023/04/03 06:24:33;;;;;;;2.03;0.70;;;20.10;31.70;;;;;;5048099;28;20041;-54
2023/04/03 06:26:59;;;;;;;1.95;0.80;;;20.10;31.70;;;;;;5045399;28;20535;-52
2023/04/03 06:29:25;;;;;;;0.82;0.57;;;20.10;31.70;;;;;;5047142;28;20030;-51
2023/04/03 06:31:51;;;;;;;1.63;0.70;;;20.10;31.70;;;;;;5046325;28;20029;-52
2023/04/03 06:34:18;;;;;;;2.40;0.80;;;20.10;31.80;;;;;;5041802;28;20113;-48
2023/04/03 06:36:48;;;;;;;1.33;0.77;;;20.10;31.70;;;;;;5045769;28;20048;-54
2023/04/03 06:39:17;;;;;;;2.40;0.80;;;20.10;31.70;;;;;;5045031;28;20037;-54
2023/04/03 06:41:43;;;;;;;2.00;0.90;;;20.10;31.70;;;;;;5046737;28;20353;-50
2023/04/03 06:44:15;;;;;;;2.70;1.00;;;20.10;31.50;;;;;;5040465;28;20045;-55
2023/04/03 06:46:42;;;;;;;2.05;0.75;;;20.10;31.50;;;;;;5045894;28;20281;-47
2023/04/03 06:49:08;;;;;;;2.28;0.73;;;20.10;31.60;;;;;;5040306;28;20413;-52
2023/04/03 06:51:35;;;;;;;2.83;1.08;;;20.10;31.60;;;;;;5045000;28;20024;-48
2023/04/03 06:54:02;;;;;;;1.77;0.80;;;20.10;31.60;;;;;;5043372;28;20022;-52
2023/04/03 06:56:28;;;;;;;1.73;0.80;;;20.10;31.60;;;;;;5046646;28;20453;-53
2023/04/03 06:58:57;;;;;;;1.17;0.77;;;20.10;31.40;;;;;;5043714;28;20022;-52
2023/04/03 07:01:27;;;;;;;2.15;1.27;;;20.00;31.40;;;;;;5035785;28;20029;-53
2023/04/03 07:03:54;;;;;;;3.97;1.60;;;20.10;31.70;;;;;;5038088;28;20419;-53
2023/04/03 07:06:21;;;;;;;5.30;1.70;;;20.10;31.70;;;;;;5039045;28;20033;-47
2023/04/03 07:08:48;;;;;;;2.50;1.48;;;20.10;31.70;;;;;;5045095;28;20645;-55
2023/04/03 07:11:15;;;;;;;3.70;1.70;;;20.10;31.70;;;;;;5045556;28;20525;-52
2023/04/03 07:13:41;;;;;;;2.30;1.65;;;20.10;31.60;;;;;;5045573;28;20447;-55
2023/04/03 07:16:08;;;;;;;2.95;1.80;;;20.10;31.50;;;;;;5042985;28;20021;-52
2023/04/03 07:18:34;;;;;;;3.72;1.63;;;20.20;31.50;;;;;;5050844;28;20021;-52
2023/04/03 07:21:00;;;;;;;2.67;1.60;;;20.20;31.40;;;;;;5055639;28;20028;-52
2023/04/03 07:23:26;;;;;;;2.75;1.55;;;20.20;31.30;;;;;;5040428;28;20013;-50
2023/04/03 07:25:53;;;;;;;2.08;1.30;;;20.30;31.30;;;;;;5040085;28;20519;-52
2023/04/03 07:28:20;;;;;;;3.45;1.85;;;20.30;31.90;;;;;;5040807;28;20033;-52
2023/04/03 07:30:48;;;;;;;3.45;1.65;;;20.30;31.20;;;;;;5042544;28;20037;-53
2023/04/03 07:33:16;;;;;;;3.67;1.38;;;20.30;31.10;;;;;;5043472;28;20037;-52
2023/04/03 07:35:42;;;;;;;3.70;1.70;;;20.40;31.10;;;;;;5039648;28;20041;-52
2023/04/03 07:38:09;;;;;;;3.53;1.92;;;20.40;31.00;;;;;;5053416;28;20523;-53
2023/04/03 07:40:36;;;;;;;3.35;2.00;;;20.40;30.90;;;;;;5051324;28;20036;-48
2023/04/03 07:43:02;;;;;;;4.18;2.20;;;20.50;30.90;;;;;;5055378;28;20503;-54
2023/04/03 07:45:28;;;;;;;2.95;2.22;;;20.50;30.90;;;;;;5041357;28;20041;-53
2023/04/03 07:47:54;;;;;;;4.10;2.58;;;20.50;30.80;;;;;;5042242;28;20187;-49
2023/04/03 07:50:21;;;;;;;5.28;2.72;;;20.60;30.80;;;;;;5037370;28;20033;-54
2023/04/03 07:52:48;;;;;;;3.40;2.50;;;20.60;30.70;;;;;;5036426;28;20025;-52
2023/04/03 07:55:14;;;;;;;4.35;2.38;;;20.60;30.60;;;;;;5042151;28;20056;-55
2023/04/03 07:57:41;;;;;;;4.32;2.50;;;20.60;30.50;;;;;;5039001;28;20039;-55
2023/04/03 08:00:08;;;;;;;3.80;2.42;;;20.70;30.50;;;;;;5049608;28;20112;-53
2023/04/03 08:02:40;;;;;;;4.18;2.40;;;20.70;30.40;;;;;;5039502;28;20055;-53
2023/04/03 08:05:07;;;;;;;3.17;2.50;;;20.70;30.30;;;;;;5034972;28;20473;-53
2023/04/03 08:07:33;;;;;;;4.53;2.88;;;20.70;30.30;;;;;;5041215;28;20021;-54
2023/04/03 08:09:59;;;;;;;4.10;2.85;;;20.70;30.30;;;;;;5042264;28;20025;-51
2023/04/03 08:12:25;;;;;;;4.68;2.83;;;20.70;30.20;;;;;;5043696;28;20025;-49
2023/04/03 08:14:50;;;;;;;5.07;3.35;;;20.80;30.20;;;;;;5044139;28;20040;-47
2023/04/03 08:17:16;;;;;;;4.78;3.03;;;20.80;30.10;;;;;;5036881;28;20029;-53
2023/04/03 08:19:42;;;;;;;4.28;2.72;;;20.80;30.00;;;;;;5034743;28;21016;-50
2023/04/03 08:22:08;;;;;;;4.72;3.25;;;20.80;30.00;;;;;;5040347;28;20037;-53
2023/04/03 08:24:34;;;;;;;4.75;3.05;;;20.80;29.90;;;;;;5041896;28;20099;-50
2023/04/03 08:27:00;;;;;;;5.25;3.15;;;20.90;29.80;;;;;;5040898;28;20052;-51
2023/04/03 08:29:26;;;;;;;4.07;2.75;;;20.80;29.70;;;;;;5044139;28;20025;-53
2023/04/03 08:31:52;;;;;;;4.10;2.90;;;20.90;29.60;;;;;;5039317;28;20025;-52
2023/04/03 08:34:19;;;;;;;4.53;3.00;;;20.90;29.50;;;;;;5045741;28;20016;-48
2023/04/03 08:36:45;;;;;;;4.75;2.85;;;20.90;29.50;;;;;;5052155;28;20025;-54
2023/04/03 08:39:11;;;;;;;4.30;3.08;;;20.90;29.40;;;;;;5056712;28;20029;-51
2023/04/03 08:41:41;;;;;;;4.43;2.88;;;20.90;29.30;;;;;;5061575;28;20025;-50
2023/04/03 08:44:13;;;;;;;4.40;3.05;;;20.90;29.30;;;;;;5062959;28;20040;-55
2023/04/03 08:46:51;;;;;;;4.53;3.08;;;20.90;29.20;;;;;;5074618;28;20076;-55
2023/04/03 08:49:32;;;;;;;4.88;3.00;;;20.90;29.10;;;;;;5073847;28;20035;-57
2023/04/03 08:52:05;;;;;;;4.28;2.83;;;20.90;29.10;;;;;;5071636;28;20328;-54
2023/04/03 08:54:37;;;;;;;6.60;5.00;;;20.90;29.00;;;;;;5057629;28;20029;-55
2023/04/03 08:57:06;;;;;;;8.70;6.78;;;20.90;29.30;;;;;;5048678;28;20070;-52
2023/04/03 08:59:39;;;;;;;10.40;8.50;;;20.90;29.60;;;;;;5054379;28;20021;-56
2023/04/03 09:02:20;;;;;;;13.18;9.98;;;20.90;29.90;;;;;;5050964;28;20076;-54
2023/04/03 09:04:50;;;;;;;14.60;11.57;;;21.00;30.00;;;;;;5048498;28;20372;-55
2023/04/03 09:07:45;;;;;;;14.13;11.77;;;21.10;30.00;;;;;;5057018;28;20073;-58
2023/04/03 09:10:14;;;;;;;15.40;11.73;;;21.20;30.00;;;;;;5072297;28;20054;-54
2023/04/03 09:12:46;;;;;;;13.13;10.75;;;21.30;30.00;;;;;;5074416;28;20051;-55
2023/04/03 09:15:20;;;;;;;13.73;11.07;;;21.40;29.90;;;;;;5074492;28;20032;-53
2023/04/03 09:18:02;;;;;;;15.07;12.27;;;21.50;29.80;;;;;;5071525;28;20036;-58
2023/04/03 09:21:01;;;;;;;14.98;12.45;;;21.70;29.60;;;;;;5074116;28;20364;-58
2023/04/03 09:23:34;;;;;;;12.75;10.43;;;21.80;29.40;;;;;;5065644;28;20088;-55
2023/04/03 09:26:09;;;;;;;12.80;9.05;;;21.90;29.30;;;;;;5069882;28;20094;-55
2023/04/03 09:28:39;;;;;;;8.32;6.90;;;21.90;29.20;;;;;;5073563;28;20444;-55
2023/04/03 09:31:37;;;;;;;7.75;6.40;;;22.00;29.10;;;;;;5070873;28;20036;-56
2023/04/03 09:34:28;;;;;;;9.20;6.35;;;22.10;29.00;;;;;;5074601;28;20048;-55
2023/04/03 09:36:59;;;;;;;7.75;5.53;;;22.20;28.90;;;;;;5059256;28;20049;-56
2023/04/03 09:39:28;;;;;;;6.70;5.45;;;22.30;28.90;;;;;;5040703;28;20056;-58
2023/04/03 09:42:05;;;;;;;6.60;5.20;;;22.30;28.70;;;;;;5034216;28;20029;-57
2023/04/03 09:44:35;;;;;;;7.35;5.75;;;22.40;28.60;;;;;;5013709;28;20450;-53
2023/04/03 09:47:29;;;;;;;6.07;4.72;;;22.40;28.40;;;;;;5020638;28;20087;-55
2023/04/03 09:50:18;;;;;;;6.03;4.55;;;22.50;28.30;;;;;;5041553;28;20053;-50
2023/04/03 09:52:51;;;;;;;5.30;4.22;;;22.60;28.10;;;;;;5034337;28;20200;-55
2023/04/03 09:55:28;;;;;;;6.13;4.40;;;22.60;28.00;;;;;;5048121;28;20025;-54
2023/04/03 09:58:03;;;;;;;6.13;4.25;;;22.70;28.00;;;;;;5035375;28;20062;-52
2023/04/03 10:00:33;;;;;;;;;;;22.80;27.90;;;;;;5034950;28;20034;-56
2023/04/03 10:02:59;;;;;;;6.18;4.28;;;22.80;27.80;;;;;;5038945;28;19916;-57
2023/04/03 10:05:38;;;;;;;5.55;3.97;;;22.80;27.90;;;;;;5036393;28;20034;-49
2023/04/03 10:08:13;;;;;;;4.20;3.50;;;22.80;27.90;;;;;;5035698;28;20094;-52
2023/04/03 10:10:45;;;;;;;4.90;3.63;;;22.90;27.70;;;;;;5034440;28;20357;-51
2023/04/03 10:13:29;;;;;;;7.07;3.55;;;22.90;27.40;;;;;;5034751;28;20025;-51
2023/04/03 10:16:08;;;;;;;4.13;3.30;;;22.90;27.20;;;;;;5035407;28;20033;-46
2023/04/03 10:18:51;;;;;;;4.72;3.83;;;22.80;27.00;;;;;;5035293;28;20075;-52
2023/04/03 10:21:30;;;;;;;4.25;3.33;;;22.70;26.80;;;;;;5032834;28;20432;-51
2023/04/03 10:24:11;;;;;;;4.22;3.40;;;22.70;26.70;;;;;;5035954;28;20092;-50
2023/04/03 10:26:52;;;;;;;4.47;3.10;;;22.60;26.50;;;;;;5037115;28;20079;-51
2023/04/03 10:29:36;;;;;;;4.88;3.75;;;22.50;26.40;;;;;;5030483;28;20030;-50
2023/04/03 10:32:14;;;;;;;4.83;3.90;;;22.50;26.30;;;;;;5034932;28;20334;-51
2023/04/03 10:34:43;;;;;;;4.70;3.70;;;22.40;26.30;;;;;;5036063;28;20017;-49
2023/04/03 10:37:36;;;;;;;4.13;3.10;;;22.30;26.20;;;;;;5033639;28;20361;-53
2023/04/03 10:40:10;;;;;;;4.32;3.13;;;22.30;26.20;;;;;;5033076;28;20447;-50
2023/04/03 10:42:36;;;;;;;5.38;3.67;;;22.20;26.20;;;;;;5040986;28;20064;-48
2023/04/03 10:45:18;;;;;;;5.38;3.50;;;22.10;26.20;;;;;;5055615;28;20033;-48
2023/04/03 10:47:59;;;;;;;3.60;3.03;;;22.10;26.20;;;;;;5055844;28;20030;-50
2023/04/03 10:50:43;;;;;;;3.97;3.42;;;22.00;26.20;;;;;;5055397;28;20021;-48
2023/04/03 10:53:28;;;;;;;4.00;3.42;;;22.00;26.20;;;;;;5053845;28;20384;-48
2023/04/03 10:56:21;;;;;;;5.60;3.97;;;21.90;26.20;;;;;;5055313;28;20065;-51
2023/04/03 10:59:16;;;;;;;5.03;3.35;;;21.90;26.30;;;;;;5055140;28;20032;-52
2023/04/03 11:01:46;;;;;;;4.23;3.47;;;21.80;26.20;;;;;;5057422;28;20033;-50
2023/04/03 11:04:16;;;;;;;4.28;3.38;;;21.80;26.20;;;;;;5050076;28;20762;-51
2023/04/03 11:06:53;;;;;;;4.82;3.58;;;21.70;26.20;;;;;;5050121;28;20033;-49
2023/04/03 11:09:32;;;;;;;5.15;3.75;;;21.70;26.20;;;;;;5045320;28;20103;-49
2023/04/03 11:12:21;;;;;;;5.90;4.63;;;21.70;26.40;;;;;;5051211;28;20033;-54
2023/04/03 11:14:51;;;;;;;5.35;4.40;;;21.60;26.40;;;;;;5050608;28;20112;-53
2023/04/03 11:17:30;;;;;;;17.27;14.02;;;21.60;26.60;;;;;;5051767;28;20032;-55
2023/04/03 11:20:06;;;;;;;31.25;23.17;;;21.60;27.50;;;;;;5050611;28;20059;-52
2023/04/03 11:22:38;;;;;;;31.58;25.55;;;21.60;28.80;;;;;;5053436;28;20103;-52
2023/04/03 11:25:21;;;;;;;31.02;26.17;;;21.60;29.60;;;;;;5053181;28;20461;-52
2023/04/03 11:27:56;;;;;;;34.53;27.13;;;21.60;30.00;;;;;;5053211;28;20052;-51
2023/04/03 11:30:53;;;;;;;35.67;26.17;;;21.60;30.40;;;;;;5054272;28;20040;-53
2023/04/03 11:33:32;;;;;;;34.97;27.63;;;21.60;30.60;;;;;;5052617;28;20036;-52
2023/04/03 11:36:04;;;;;;;32.88;26.00;;;21.60;30.80;;;;;;5050969;28;20314;-51
2023/04/03 11:38:39;;;;;;;29.95;24.02;;;21.60;30.60;;;;;;5054133;28;20029;-54
2023/04/03 11:41:07;;;;;;;29.45;23.00;;;21.60;30.20;;;;;;5053485;28;20338;-50
2023/04/03 11:43:39;;;;;;;25.23;19.88;;;21.60;29.90;;;;;;5046947;28;20127;-48
2023/04/03 11:46:06;;;;;;;21.08;18.02;;;21.60;29.70;;;;;;5054795;28;20041;-54
2023/04/03 11:48:35;;;;;;;22.60;18.55;;;21.60;29.40;;;;;;5053441;28;20040;-51
2023/04/03 11:51:22;;;;;;;23.77;19.10;;;21.60;29.30;;;;;;5054073;28;20135;-48
2023/04/03 11:53:48;;;;;;;31.60;25.63;;;21.50;29.20;;;;;;5049660;28;20039;-53
2023/04/03 11:56:23;;;;;;;37.97;28.05;;;21.50;30.00;;;;;;5053693;28;20475;-51
2023/04/03 11:59:07;;;;;;;;;;;21.50;30.70;;;;;;5053163;28;20048;-50
2023/04/03 12:01:43;;;;;;;33.65;27.48;;;21.50;30.90;;;;;;5054224;28;19927;-51
2023/04/03 12:04:14;;;;;;;34.22;27.67;;;21.50;31.10;;;;;;5054796;28;20059;-52
2023/04/03 12:06:40;;;;;;;36.25;29.17;;;21.50;31.20;;;;;;5053591;28;20033;-53
2023/04/03 12:09:52;;;;;;;35.00;27.45;;;21.50;31.20;;;;;;5051745;28;20100;-51
2023/04/03 12:12:36;;;;;;;35.15;26.77;;;21.50;31.00;;;;;;5053147;28;20017;-55
2023/04/03 12:15:44;;;;;;;36.23;27.93;;;21.50;31.00;;;;;;5053853;28;20083;-60
2023/04/03 12:18:37;;;;;;;32.63;26.08;;;21.50;31.10;;;;;;5048483;28;20116;-53
2023/04/03 12:21:03;;;;;;;35.97;26.83;;;21.50;31.20;;;;;;5052457;28;20376;-52
2023/04/03 12:23:38;;;;;;;34.40;26.42;;;21.60;31.30;;;;;;5051667;28;20039;-48
2023/04/03 12:26:21;;;;;;;32.65;25.83;;;21.60;31.20;;;;;;5052003;28;20078;-55
2023/04/03 12:28:49;;;;;;;31.30;24.60;;;21.70;31.00;;;;;;5052614;28;20029;-52
2023/04/03 12:31:16;;;;;;;31.60;25.30;;;21.80;31.00;;;;;;5053233;28;20024;-54
2023/04/03 12:34:12;;;;;;;31.45;24.70;;;21.90;30.90;;;;;;5050431;28;20025;-53
2023/04/03 12:36:47;;;;;;;29.13;24.55;;;22.00;30.70;;;;;;5052092;28;20055;-52
2023/04/03 12:39:22;;;;;;;31.00;25.27;;;22.10;30.70;;;;;;5051016;28;20075;-56
2023/04/03 12:42:03;;;;;;;31.48;25.00;;;22.20;30.60;;;;;;5048988;28;20457;-54
2023/04/03 12:44:44;;;;;;;30.40;23.52;;;22.30;30.50;;;;;;5038766;28;20047;-56
2023/04/03 12:47:36;;;;;;;27.83;23.30;;;22.40;30.50;;;;;;5050579;28;20052;-53
2023/04/03 12:50:04;;;;;;;28.85;23.38;;;22.40;30.40;;;;;;5050883;28;20356;-54
2023/04/03 12:52:54;;;;;;;31.05;25.08;;;22.50;30.20;;;;;;5043609;28;20032;-55
2023/04/03 12:55:20;;;;;;;30.88;24.67;;;22.60;30.20;;;;;;5074746;28;20036;-47
2023/04/03 12:57:46;;;;;;;29.65;24.23;;;22.60;30.20;;;;;;5051728;28;20028;-51
2023/04/03 13:00:21;;;;;;;29.83;24.17;;;22.70;30.20;;;;;;5052682;28;20142;-49
2023/04/03 13:02:47;;;;;;;;;;;22.70;30.10;;;;;;5048822;28;20118;-48